sensor_id;sensor_type;location;lat;lon;timestamp;pressure;altitude;pressure_sealevel;temperature;humidity
2875;BME280;1445;52.600;13.328;2024-03-07T00:02:20;79262.06;;;-145.99;100.00
2875;BME280;1445;52.600;13.328;2024-03-07T00:04:45;79272.59;;;-145.99;100.00
2875;BME280;1445;52.600;13.328;2024-03-07T00:07:11;79287.28;;;-145.99;100.00
2875;BME280;1445;52.600;13.328;2024-03-07T00:09:36;79291.50;;;-145.99;100.00
2875;BME280;1445;52.600;13.328;2024-03-07T00:12:03;79274.69;;;-145.99;100.00
2875;BME280;1445;52.600;13.328;2024-03-07T00:14:30;79304.09;;;-145.99;100.00
2875;BME280;1445;52.600;13.328;2024-03-07T00:16:57;79287.28;;;-145.99;100.00
2875;BME280;1445;52.600;13.328;2024-03-07T00:19:26;79272.59;;;-145.99;100.00
2875;BME280;1445;52.600;13.328;2024-03-07T00:21:59;79283.09;;;-145.99;100.00
2875;BME280;1445;52.600;13.328;2024-03-07T00:24:24;79278.88;;;-145.99;100.00
2875;BME280;1445;52.600;13.328;2024-03-07T00:26:50;79287.28;;;-145.99;100.00
2875;BME280;1445;52.600;13.328;2024-03-07T00:29:17;79283.09;;;-145.99;100.00
2875;BME280;1445;52.600;13.328;2024-03-07T00:31:46;79270.47;;;-145.99;100.00
2875;BME280;1445;52.600;13.328;2024-03-07T00:34:18;79297.81;;;-145.99;100.00
2875;BME280;1445;52.600;13.328;2024-03-07T00:36:45;79289.41;;;-145.99;100.00
2875;BME280;1445;52.600;13.328;2024-03-07T00:39:11;79291.50;;;-145.99;100.00
2875;BME280;1445;52.600;13.328;2024-03-07T00:41:40;79289.41;;;-145.99;100.00
2875;BME280;1445;52.600;13.328;2024-03-07T00:44:07;79289.41;;;-145.99;100.00
2875;BME280;1445;52.600;13.328;2024-03-07T00:46:34;79295.69;;;-145.99;100.00
2875;BME280;1445;52.600;13.328;2024-03-07T00:49:01;79302.00;;;-145.99;100.00
2875;BME280;1445;52.600;13.328;2024-03-07T00:51:26;79314.63;;;-145.99;100.00
2875;BME280;1445;52.600;13.328;2024-03-07T00:53:52;79310.41;;;-145.99;100.00
2875;BME280;1445;52.600;13.328;2024-03-07T00:56:17;79287.28;;;-145.99;100.00
2875;BME280;1445;52.600;13.328;2024-03-07T00:58:44;79289.41;;;-145.99;100.00
2875;BME280;1445;52.600;13.328;2024-03-07T01:01:09;79283.09;;;-145.99;100.00
2875;BME280;1445;52.600;13.328;2024-03-07T01:03:36;79285.19;;;-145.99;100.00
2875;BME280;1445;52.600;13.328;2024-03-07T01:06:02;79272.59;;;-145.99;100.00
2875;BME280;1445;52.600;13.328;2024-03-07T01:08:28;79278.88;;;-145.99;100.00
2875;BME280;1445;52.600;13.328;2024-03-07T01:10:53;79285.19;;;-145.99;100.00
2875;BME280;1445;52.600;13.328;2024-03-07T01:13:19;79278.88;;;-145.99;100.00
2875;BME280;1445;52.600;13.328;2024-03-07T01:15:47;79283.09;;;-145.99;100.00
2875;BME280;1445;52.600;13.328;2024-03-07T01:18:14;79289.41;;;-145.99;100.00
2875;BME280;1445;52.600;13.328;2024-03-07T01:20:39;79308.31;;;-145.99;100.00
2875;BME280;1445;52.600;13.328;2024-03-07T01:23:05;79306.22;;;-145.99;100.00
2875;BME280;1445;52.600;13.328;2024-03-07T01:25:30;79291.50;;;-145.99;100.00
2875;BME280;1445;52.600;13.328;2024-03-07T01:27:59;79297.81;;;-145.99;100.00
2875;BME280;1445;52.600;13.328;2024-03-07T01:30:25;79297.81;;;-145.99;100.00
2875;BME280;1445;52.600;13.328;2024-03-07T01:32:56;79291.50;;;-145.99;100.00
2875;BME280;1445;52.600;13.328;2024-03-07T01:35:21;79299.91;;;-145.99;100.00
2875;BME280;1445;52.600;13.328;2024-03-07T01:37:47;79293.59;;;-145.99;100.00
2875;BME280;1445;52.600;13.328;2024-03-07T01:40:12;79295.69;;;-145.99;100.00
2875;BME280;1445;52.600;13.328;2024-03-07T01:42:40;79289.41;;;-145.99;100.00
2875;BME280;1445;52.600;13.328;2024-03-07T01:45:05;79318.81;;;-145.99;100.00
2875;BME280;1445;52.600;13.328;2024-03-07T01:47:34;79304.09;;;-145.99;100.00
2875;BME280;1445;52.600;13.328;2024-03-07T01:50:00;79308.31;;;-145.99;100.00
2875;BME280;1445;52.600;13.328;2024-03-07T01:52:25;79323.00;;;-145.99;100.00
2875;BME280;1445;52.600;13.328;2024-03-07T01:54:52;79316.72;;;-145.99;100.00
2875;BME280;1445;52.600;13.328;2024-03-07T01:57:18;79320.91;;;-145.99;100.00
2875;BME280;1445;52.600;13.328;2024-03-07T01:59:44;79318.81;;;-145.99;100.00
2875;BME280;1445;52.600;13.328;2024-03-07T02:02:10;79312.50;;;-145.99;100.00
2875;BME280;1445;52.600;13.328;2024-03-07T02:04:35;79297.81;;;-145.99;100.00
2875;BME280;1445;52.600;13.328;2024-03-07T02:07:01;79295.69;;;-145.99;100.00
2875;BME280;1445;52.600;13.328;2024-03-07T02:09:26;79310.41;;;-145.99;100.00
2875;BME280;1445;52.600;13.328;2024-03-07T02:11:52;79312.50;;;-145.99;100.00
2875;BME280;1445;52.600;13.328;2024-03-07T02:14:17;79320.91;;;-145.99;100.00
2875;BME280;1445;52.600;13.328;2024-03-07T02:16:43;79325.13;;;-145.99;100.00
2875;BME280;1445;52.600;13.328;2024-03-07T02:19:14;79331.41;;;-145.99;100.00
2875;BME280;1445;52.600;13.328;2024-03-07T02:21:39;79344.03;;;-145.99;100.00
2875;BME280;1445;52.600;13.328;2024-03-07T02:24:05;79367.16;;;-145.99;100.00
2875;BME280;1445;52.600;13.328;2024-03-07T02:26:31;79350.34;;;-145.99;100.00
2875;BME280;1445;52.600;13.328;2024-03-07T02:28:56;79337.72;;;-145.99;100.00
2875;BME280;1445;52.600;13.328;2024-03-07T02:31:22;79346.13;;;-145.99;100.00
2875;BME280;1445;52.600;13.328;2024-03-07T02:34:01;79348.22;;;-145.99;100.00
2875;BME280;1445;52.600;13.328;2024-03-07T02:36:27;79346.13;;;-145.99;100.00
2875;BME280;1445;52.600;13.328;2024-03-07T02:38:52;79344.03;;;-145.99;100.00
2875;BME280;1445;52.600;13.328;2024-03-07T02:41:18;79352.44;;;-145.99;100.00
2875;BME280;1445;52.600;13.328;2024-03-07T02:43:43;79375.56;;;-145.99;100.00
2875;BME280;1445;52.600;13.328;2024-03-07T02:46:08;79386.06;;;-145.99;100.00
2875;BME280;1445;52.600;13.328;2024-03-07T02:48:37;79388.16;;;-145.99;100.00
2875;BME280;1445;52.600;13.328;2024-03-07T02:51:02;79390.25;;;-145.99;100.00
2875;BME280;1445;52.600;13.328;2024-03-07T02:53:28;79396.56;;;-145.99;100.00
2875;BME280;1445;52.600;13.328;2024-03-07T02:55:53;79419.69;;;-145.99;100.00
2875;BME280;1445;52.600;13.328;2024-03-07T02:58:19;79421.78;;;-145.99;100.00
2875;BME280;1445;52.600;13.328;2024-03-07T03:00:45;79426.00;;;-145.99;100.00
2875;BME280;1445;52.600;13.328;2024-03-07T03:03:10;79426.00;;;-145.99;100.00
2875;BME280;1445;52.600;13.328;2024-03-07T03:05:36;79442.78;;;-145.99;100.00
2875;BME280;1445;52.600;13.328;2024-03-07T03:08:01;79449.09;;;-145.99;100.00
2875;BME280;1445;52.600;13.328;2024-03-07T03:10:26;79444.91;;;-145.99;100.00
2875;BME280;1445;52.600;13.328;2024-03-07T03:12:55;79444.91;;;-145.99;100.00
2875;BME280;1445;52.600;13.328;2024-03-07T03:15:23;79453.31;;;-145.99;100.00
2875;BME280;1445;52.600;13.328;2024-03-07T03:17:48;79444.91;;;-145.99;100.00
2875;BME280;1445;52.600;13.328;2024-03-07T03:20:14;79438.59;;;-145.99;100.00
2875;BME280;1445;52.600;13.328;2024-03-07T03:22:58;79434.41;;;-145.99;100.00
2875;BME280;1445;52.600;13.328;2024-03-07T03:25:24;79434.41;;;-145.99;100.00
2875;BME280;1445;52.600;13.328;2024-03-07T03:27:49;79442.78;;;-145.99;100.00
2875;BME280;1445;52.600;13.328;2024-03-07T03:30:15;79430.19;;;-145.99;100.00
2875;BME280;1445;52.600;13.328;2024-03-07T03:32:44;79428.09;;;-145.99;100.00
2875;BME280;1445;52.600;13.328;2024-03-07T03:35:10;79411.28;;;-145.99;100.00
2875;BME280;1445;52.600;13.328;2024-03-07T03:37:39;79417.59;;;-145.99;100.00
2875;BME280;1445;52.600;13.328;2024-03-07T03:40:07;79404.97;;;-145.99;100.00
2875;BME280;1445;52.600;13.328;2024-03-07T03:42:37;79392.38;;;-145.99;100.00
2875;BME280;1445;52.600;13.328;2024-03-07T03:45:08;79396.56;;;-145.99;100.00
2875;BME280;1445;52.600;13.328;2024-03-07T03:47:37;79394.47;;;-145.99;100.00
2875;BME280;1445;52.600;13.328;2024-03-07T03:50:07;79386.06;;;-145.99;100.00
2875;BME280;1445;52.600;13.328;2024-03-07T03:52:33;79392.38;;;-145.99;100.00
2875;BME280;1445;52.600;13.328;2024-03-07T03:55:00;79390.25;;;-145.99;100.00
2875;BME280;1445;52.600;13.328;2024-03-07T03:57:28;79396.56;;;-145.99;100.00
2875;BME280;1445;52.600;13.328;2024-03-07T03:59:54;79388.16;;;-145.99;100.00
2875;BME280;1445;52.600;13.328;2024-03-07T04:02:20;79388.16;;;-145.99;100.00
2875;BME280;1445;52.600;13.328;2024-03-07T04:04:50;79386.06;;;-145.99;100.00
2875;BME280;1445;52.600;13.328;2024-03-07T04:07:20;79400.78;;;-145.99;100.00
2875;BME280;1445;52.600;13.328;2024-03-07T04:09:46;79388.16;;;-145.99;100.00
2875;BME280;1445;52.600;13.328;2024-03-07T04:12:12;79400.78;;;-145.99;100.00
2875;BME280;1445;52.600;13.328;2024-03-07T04:14:41;79392.38;;;-145.99;100.00
2875;BME280;1445;52.600;13.328;2024-03-07T04:17:08;79394.47;;;-145.99;100.00
2875;BME280;1445;52.600;13.328;2024-03-07T04:19:35;79396.56;;;-145.99;100.00
2875;BME280;1445;52.600;13.328;2024-03-07T04:22:01;79413.38;;;-145.99;100.00
2875;BME280;1445;52.600;13.328;2024-03-07T04:24:29;79409.19;;;-145.99;100.00
2875;BME280;1445;52.600;13.328;2024-03-07T04:26:54;79423.88;;;-145.99;100.00
2875;BME280;1445;52.600;13.328;2024-03-07T04:29:20;79436.50;;;-145.99;100.00
2875;BME280;1445;52.600;13.328;2024-03-07T04:31:45;79449.09;;;-145.99;100.00
2875;BME280;1445;52.600;13.328;2024-03-07T04:34:11;79478.53;;;-145.99;100.00
2875;BME280;1445;52.600;13.328;2024-03-07T04:36:36;79482.72;;;-145.99;100.00
2875;BME280;1445;52.600;13.328;2024-03-07T04:39:02;79510.03;;;-145.99;100.00
2875;BME280;1445;52.600;13.328;2024-03-07T04:41:29;79516.34;;;-145.99;100.00
2875;BME280;1445;52.600;13.328;2024-03-07T04:43:55;79526.84;;;-145.99;100.00
2875;BME280;1445;52.600;13.328;2024-03-07T04:46:20;79535.25;;;-145.99;100.00
2875;BME280;1445;52.600;13.328;2024-03-07T04:48:45;79543.66;;;-145.99;100.00
2875;BME280;1445;52.600;13.328;2024-03-07T04:51:11;79554.19;;;-145.99;100.00
2875;BME280;1445;52.600;13.328;2024-03-07T04:53:36;79566.78;;;-145.99;100.00
2875;BME280;1445;52.600;13.328;2024-03-07T04:56:07;79583.59;;;-145.99;100.00
2875;BME280;1445;52.600;13.328;2024-03-07T04:58:35;79587.81;;;-145.99;100.00
2875;BME280;1445;52.600;13.328;2024-03-07T05:01:01;79604.63;;;-145.99;100.00
2875;BME280;1445;52.600;13.328;2024-03-07T05:03:28;79604.63;;;-145.99;100.00
2875;BME280;1445;52.600;13.328;2024-03-07T05:05:53;79627.72;;;-145.99;100.00
2875;BME280;1445;52.600;13.328;2024-03-07T05:08:18;79629.84;;;-145.99;100.00
2875;BME280;1445;52.600;13.328;2024-03-07T05:10:44;79631.94;;;-145.99;100.00
2875;BME280;1445;52.600;13.328;2024-03-07T05:13:09;79648.75;;;-145.99;100.00
2875;BME280;1445;52.600;13.328;2024-03-07T05:15:36;79646.66;;;-145.99;100.00
2875;BME280;1445;52.600;13.328;2024-03-07T05:18:01;79650.84;;;-145.99;100.00
2875;BME280;1445;52.600;13.328;2024-03-07T05:20:27;79671.88;;;-145.99;100.00
2875;BME280;1445;52.600;13.328;2024-03-07T05:22:53;79667.66;;;-145.99;100.00
2875;BME280;1445;52.600;13.328;2024-03-07T05:25:19;79676.06;;;-145.99;100.00
2875;BME280;1445;52.600;13.328;2024-03-07T05:27:47;79676.06;;;-145.99;100.00
2875;BME280;1445;52.600;13.328;2024-03-07T05:30:16;79680.28;;;-145.99;100.00
2875;BME280;1445;52.600;13.328;2024-03-07T05:32:42;79684.47;;;-145.99;100.00
2875;BME280;1445;52.600;13.328;2024-03-07T05:35:08;79694.97;;;-145.99;100.00
2875;BME280;1445;52.600;13.328;2024-03-07T05:37:34;79697.09;;;-145.99;100.00
2875;BME280;1445;52.600;13.328;2024-03-07T05:39:59;79699.19;;;-145.99;100.00
2875;BME280;1445;52.600;13.328;2024-03-07T05:42:25;79707.59;;;-145.99;100.00
2875;BME280;1445;52.600;13.328;2024-03-07T05:44:51;79711.78;;;-145.99;100.00
2875;BME280;1445;52.600;13.328;2024-03-07T05:47:19;79716.00;;;-145.99;100.00
2875;BME280;1445;52.600;13.328;2024-03-07T05:49:44;79726.50;;;-145.99;100.00
2875;BME280;1445;52.600;13.328;2024-03-07T05:52:10;79728.59;;;-145.99;100.00
2875;BME280;1445;52.600;13.328;2024-03-07T05:54:36;79728.59;;;-145.99;100.00
2875;BME280;1445;52.600;13.328;2024-03-07T05:57:01;79730.72;;;-145.99;100.00
2875;BME280;1445;52.600;13.328;2024-03-07T05:59:27;79732.81;;;-145.99;100.00
2875;BME280;1445;52.600;13.328;2024-03-07T06:01:57;79732.81;;;-145.99;100.00
2875;BME280;1445;52.600;13.328;2024-03-07T06:04:22;79732.81;;;-145.99;100.00
2875;BME280;1445;52.600;13.328;2024-03-07T06:06:48;79753.81;;;-145.99;100.00
2875;BME280;1445;52.600;13.328;2024-03-07T06:09:14;79753.81;;;-145.99;100.00
2875;BME280;1445;52.600;13.328;2024-03-07T06:11:40;79745.41;;;-145.99;100.00
2875;BME280;1445;52.600;13.328;2024-03-07T06:14:08;79741.22;;;-145.99;100.00
2875;BME280;1445;52.600;13.328;2024-03-07T06:16:38;79737.00;;;-145.99;100.00
2875;BME280;1445;52.600;13.328;2024-03-07T06:19:04;79745.41;;;-145.99;100.00
2875;BME280;1445;52.600;13.328;2024-03-07T06:21:34;79745.41;;;-145.99;100.00
2875;BME280;1445;52.600;13.328;2024-03-07T06:24:01;79751.72;;;-145.99;100.00
2875;BME280;1445;52.600;13.328;2024-03-07T06:26:29;79751.72;;;-145.99;100.00
2875;BME280;1445;52.600;13.328;2024-03-07T06:29:25;79751.72;;;-145.99;100.00
2875;BME280;1445;52.600;13.328;2024-03-07T06:31:50;79751.72;;;-145.99;100.00
2875;BME280;1445;52.600;13.328;2024-03-07T06:34:18;79732.81;;;-145.99;100.00
2875;BME280;1445;52.600;13.328;2024-03-07T06:36:44;79724.41;;;-145.99;100.00
2875;BME280;1445;52.600;13.328;2024-03-07T06:39:09;79724.41;;;-145.99;100.00
2875;BME280;1445;52.600;13.328;2024-03-07T06:41:39;79728.59;;;-145.99;100.00
2875;BME280;1445;52.600;13.328;2024-03-07T06:44:05;79720.19;;;-145.99;100.00
2875;BME280;1445;52.600;13.328;2024-03-07T06:46:30;79707.59;;;-145.99;100.00
2875;BME280;1445;52.600;13.328;2024-03-07T06:48:59;79709.69;;;-145.99;100.00
2875;BME280;1445;52.600;13.328;2024-03-07T06:51:25;79703.38;;;-145.99;100.00
2875;BME280;1445;52.600;13.328;2024-03-07T06:53:50;79705.50;;;-145.99;100.00
2875;BME280;1445;52.600;13.328;2024-03-07T06:56:16;79694.97;;;-145.99;100.00
2875;BME280;1445;52.600;13.328;2024-03-07T06:58:42;79707.59;;;-145.99;100.00
2875;BME280;1445;52.600;13.328;2024-03-07T07:01:10;79690.78;;;-145.99;100.00
2875;BME280;1445;52.600;13.328;2024-03-07T07:03:37;79697.09;;;-145.99;100.00
2875;BME280;1445;52.600;13.328;2024-03-07T07:06:03;79682.38;;;-145.99;100.00
2875;BME280;1445;52.600;13.328;2024-03-07T07:08:31;79671.88;;;-145.99;100.00
2875;BME280;1445;52.600;13.328;2024-03-07T07:10:57;79667.66;;;-145.99;100.00
2875;BME280;1445;52.600;13.328;2024-03-07T07:13:23;79665.56;;;-145.99;100.00
2875;BME280;1445;52.600;13.328;2024-03-07T07:15:51;79661.34;;;-145.99;100.00
2875;BME280;1445;52.600;13.328;2024-03-07T07:18:18;79669.75;;;-145.99;100.00
2875;BME280;1445;52.600;13.328;2024-03-07T07:20:44;79650.84;;;-145.99;100.00
2875;BME280;1445;52.600;13.328;2024-03-07T07:23:09;79625.63;;;-145.99;100.00
2875;BME280;1445;52.600;13.328;2024-03-07T07:25:35;79617.22;;;-145.99;100.00
2875;BME280;1445;52.600;13.328;2024-03-07T07:28:01;79608.81;;;-145.99;100.00
2875;BME280;1445;52.600;13.328;2024-03-07T07:30:30;79596.22;;;-145.99;100.00
2875;BME280;1445;52.600;13.328;2024-03-07T07:32:55;79589.91;;;-145.99;100.00
2875;BME280;1445;52.600;13.328;2024-03-07T07:35:20;79575.19;;;-145.99;100.00
2875;BME280;1445;52.600;13.328;2024-03-07T07:37:50;79568.88;;;-145.99;100.00
2875;BME280;1445;52.600;13.328;2024-03-07T07:40:20;79556.28;;;-145.99;100.00
2875;BME280;1445;52.600;13.328;2024-03-07T07:42:49;79549.97;;;-145.99;100.00
2875;BME280;1445;52.600;13.328;2024-03-07T07:45:17;79526.84;;;-145.99;100.00
2875;BME280;1445;52.600;13.328;2024-03-07T07:47:43;79522.66;;;-145.99;100.00
2875;BME280;1445;52.600;13.328;2024-03-07T07:50:11;79505.84;;;-145.99;100.00
2875;BME280;1445;52.600;13.328;2024-03-07T07:52:51;79493.22;;;-145.99;100.00
2875;BME280;1445;52.600;13.328;2024-03-07T07:55:19;79484.81;;;-145.99;100.00
2875;BME280;1445;52.600;13.328;2024-03-07T07:57:50;79465.91;;;-145.99;100.00
2875;BME280;1445;52.600;13.328;2024-03-07T08:00:21;79465.91;;;-145.99;100.00
2875;BME280;1445;52.600;13.328;2024-03-07T08:05:15;79415.47;;;-145.99;100.00
2875;BME280;1445;52.600;13.328;2024-03-07T08:07:43;79398.66;;;-145.99;100.00
2875;BME280;1445;52.600;13.328;2024-03-07T08:10:09;79390.25;;;-145.99;100.00
2875;BME280;1445;52.600;13.328;2024-03-07T08:12:35;79396.56;;;-145.99;100.00
2875;BME280;1445;52.600;13.328;2024-03-07T08:15:03;79375.56;;;-145.99;100.00
2875;BME280;1445;52.600;13.328;2024-03-07T08:17:28;79335.63;;;-145.99;100.00
2875;BME280;1445;52.600;13.328;2024-03-07T08:19:54;79316.72;;;-145.99;100.00
2875;BME280;1445;52.600;13.328;2024-03-07T08:22:19;79299.91;;;-145.99;100.00
2875;BME280;1445;52.600;13.328;2024-03-07T08:24:45;79299.91;;;-145.99;100.00
2875;BME280;1445;52.600;13.328;2024-03-07T08:27:11;79299.91;;;-145.99;100.00
2875;BME280;1445;52.600;13.328;2024-03-07T08:29:36;79270.47;;;-145.99;100.00
2875;BME280;1445;52.600;13.328;2024-03-07T08:32:02;79266.28;;;-145.99;100.00
2875;BME280;1445;52.600;13.328;2024-03-07T08:34:28;79249.47;;;-145.99;100.00
2875;BME280;1445;52.600;13.328;2024-03-07T08:36:53;79241.06;;;-145.99;100.00
2875;BME280;1445;52.600;13.328;2024-03-07T08:39:19;79220.06;;;-145.99;100.00
2875;BME280;1445;52.600;13.328;2024-03-07T08:41:45;79232.66;;;-145.99;100.00
2875;BME280;1445;52.600;13.328;2024-03-07T08:44:11;79241.06;;;-145.99;100.00
2875;BME280;1445;52.600;13.328;2024-03-07T08:46:38;79196.94;;;-145.99;100.00
2875;BME280;1445;52.600;13.328;2024-03-07T08:49:04;79190.63;;;-145.99;100.00
2875;BME280;1445;52.600;13.328;2024-03-07T08:51:30;79169.63;;;-145.99;100.00
2875;BME280;1445;52.600;13.328;2024-03-07T08:53:56;79169.63;;;-145.99;100.00
2875;BME280;1445;52.600;13.328;2024-03-07T08:56:21;79157.00;;;-145.99;100.00
2875;BME280;1445;52.600;13.328;2024-03-07T08:58:48;79136.00;;;-145.99;100.00
2875;BME280;1445;52.600;13.328;2024-03-07T09:01:14;79108.69;;;-145.99;100.00
2875;BME280;1445;52.600;13.328;2024-03-07T09:03:39;79106.59;;;-145.99;100.00
2875;BME280;1445;52.600;13.328;2024-03-07T09:06:05;79093.97;;;-145.99;100.00
2875;BME280;1445;52.600;13.328;2024-03-07T09:08:30;79081.38;;;-145.99;100.00
2875;BME280;1445;52.600;13.328;2024-03-07T09:10:56;79098.19;;;-145.99;100.00
2875;BME280;1445;52.600;13.328;2024-03-07T09:13:23;79077.16;;;-145.99;100.00
2875;BME280;1445;52.600;13.328;2024-03-07T09:15:48;79051.94;;;-145.99;100.00
2875;BME280;1445;52.600;13.328;2024-03-07T09:18:13;79041.44;;;-145.99;100.00
2875;BME280;1445;52.600;13.328;2024-03-07T09:20:40;79051.94;;;-145.99;98.92
2875;BME280;1445;52.600;13.328;2024-03-07T09:23:05;79022.53;;;-145.99;99.09
2875;BME280;1445;52.600;13.328;2024-03-07T09:25:31;79009.94;;;-145.99;98.88
2875;BME280;1445;52.600;13.328;2024-03-07T09:27:58;78980.50;;;-145.99;98.27
2875;BME280;1445;52.600;13.328;2024-03-07T09:30:26;78946.88;;;-145.99;96.08
2875;BME280;1445;52.600;13.328;2024-03-07T09:32:53;78911.16;;;-145.99;93.60
2875;BME280;1445;52.600;13.328;2024-03-07T09:35:20;78927.97;;;-145.99;91.76
2875;BME280;1445;52.600;13.328;2024-03-07T09:37:46;78892.25;;;-145.99;90.68
2875;BME280;1445;52.600;13.328;2024-03-07T09:40:12;78862.84;;;-145.99;89.40
2875;BME280;1445;52.600;13.328;2024-03-07T09:42:45;78881.75;;;-145.99;86.47
2875;BME280;1445;52.600;13.328;2024-03-07T09:45:15;78883.84;;;-145.99;88.35
2875;BME280;1445;52.600;13.328;2024-03-07T09:47:42;78837.63;;;-145.99;86.43
2875;BME280;1445;52.600;13.328;2024-03-07T09:50:10;78814.53;;;-145.99;83.61
2875;BME280;1445;52.600;13.328;2024-03-07T09:52:35;78753.59;;;-145.99;78.92
2875;BME280;1445;52.600;13.328;2024-03-07T09:55:01;78795.59;;;-145.99;74.66
2875;BME280;1445;52.600;13.328;2024-03-07T09:57:29;78875.44;;;-145.99;75.70
2875;BME280;1445;52.600;13.328;2024-03-07T09:59:58;78835.53;;;-145.99;77.89
2875;BME280;1445;52.600;13.328;2024-03-07T10:02:25;78736.78;;;-145.99;75.28
2875;BME280;1445;52.600;13.328;2024-03-07T10:04:53;78749.38;;;-145.99;73.39
2875;BME280;1445;52.600;13.328;2024-03-07T10:07:20;78669.56;;;-145.99;72.78
2875;BME280;1445;52.600;13.328;2024-03-07T10:09:45;78682.16;;;-145.99;72.60
2875;BME280;1445;52.600;13.328;2024-03-07T10:12:12;78682.16;;;-145.99;70.97
2875;BME280;1445;52.600;13.328;2024-03-07T10:14:51;78785.09;;;-145.99;73.72
2875;BME280;1445;52.600;13.328;2024-03-07T10:17:23;78732.56;;;-145.99;75.93
2875;BME280;1445;52.600;13.328;2024-03-07T10:19:49;78682.16;;;-145.99;73.86
2875;BME280;1445;52.600;13.328;2024-03-07T10:22:16;78640.13;;;-145.99;73.20
2875;BME280;1445;52.600;13.328;2024-03-07T10:24:56;78585.50;;;-145.99;65.51
2875;BME280;1445;52.600;13.328;2024-03-07T10:27:22;78575.00;;;-145.99;65.40
2875;BME280;1445;52.600;13.328;2024-03-07T10:29:48;78581.31;;;-145.99;59.60
2875;BME280;1445;52.600;13.328;2024-03-07T10:32:24;78535.09;;;-145.99;56.40
2875;BME280;1445;52.600;13.328;2024-03-07T10:34:51;78560.31;;;-145.99;53.29
2875;BME280;1445;52.600;13.328;2024-03-07T10:37:17;78604.41;;;-145.99;54.67
2875;BME280;1445;52.600;13.328;2024-03-07T10:39:49;78581.31;;;-145.99;54.39
2875;BME280;1445;52.600;13.328;2024-03-07T10:42:16;78530.88;;;-145.99;54.67
2875;BME280;1445;52.600;13.328;2024-03-07T10:44:48;78503.56;;;-145.99;51.74
2875;BME280;1445;52.600;13.328;2024-03-07T10:47:20;78493.06;;;-145.99;50.68
2875;BME280;1445;52.600;13.328;2024-03-07T10:49:59;78505.69;;;-145.99;46.90
2875;BME280;1445;52.600;13.328;2024-03-07T10:52:39;78486.78;;;-145.99;48.27
2875;BME280;1445;52.600;13.328;2024-03-07T10:55:17;78493.06;;;-145.99;47.23
2875;BME280;1445;52.600;13.328;2024-03-07T10:57:50;78446.84;;;-145.99;46.04
2875;BME280;1445;52.600;13.328;2024-03-07T11:00:21;78528.78;;;-145.99;46.98
2875;BME280;1445;52.600;13.328;2024-03-07T11:02:55;78438.44;;;-145.99;46.43
2875;BME280;1445;52.600;13.328;2024-03-07T11:05:23;78377.53;;;-145.99;42.88
2875;BME280;1445;52.600;13.328;2024-03-07T11:07:50;78367.03;;;-145.99;41.38
2875;BME280;1445;52.600;13.328;2024-03-07T11:10:18;78411.13;;;-145.99;43.48
2875;BME280;1445;52.600;13.328;2024-03-07T11:12:44;78400.63;;;-145.99;41.70
2875;BME280;1445;52.600;13.328;2024-03-07T11:15:12;78343.91;;;-145.99;41.93
2875;BME280;1445;52.600;13.328;2024-03-07T11:17:43;78304.00;;;-145.99;42.05
2875;BME280;1445;52.600;13.328;2024-03-07T11:20:23;78259.88;;;-145.99;40.82
2875;BME280;1445;52.600;13.328;2024-03-07T11:22:49;78232.56;;;-145.99;39.12
2875;BME280;1445;52.600;13.328;2024-03-07T11:25:18;78188.47;;;-145.99;38.77
2875;BME280;1445;52.600;13.328;2024-03-07T11:27:52;78186.34;;;-145.99;37.29
2875;BME280;1445;52.600;13.328;2024-03-07T11:30:19;78228.38;;;-145.99;37.68
2875;BME280;1445;52.600;13.328;2024-03-07T11:32:46;78224.16;;;-145.99;39.38
2875;BME280;1445;52.600;13.328;2024-03-07T11:35:14;78312.41;;;-145.99;39.76
2875;BME280;1445;52.600;13.328;2024-03-07T11:37:43;78213.66;;;-145.99;39.89
2875;BME280;1445;52.600;13.328;2024-03-07T11:40:13;78127.53;;;-145.99;37.17
2875;BME280;1445;52.600;13.328;2024-03-07T11:43:00;78117.03;;;-145.99;36.44
2875;BME280;1445;52.600;13.328;2024-03-07T11:45:30;78091.81;;;-145.99;36.41
2875;BME280;1445;52.600;13.328;2024-03-07T11:47:59;78110.72;;;-145.99;37.15
2875;BME280;1445;52.600;13.328;2024-03-07T11:50:28;78037.22;;;-145.99;35.51
2875;BME280;1445;52.600;13.328;2024-03-07T11:52:55;78043.50;;;-145.99;35.69
2875;BME280;1445;52.600;13.328;2024-03-07T11:55:21;78001.50;;;-145.99;34.76
2875;BME280;1445;52.600;13.328;2024-03-07T11:57:48;77995.19;;;-145.99;34.66
2875;BME280;1445;52.600;13.328;2024-03-07T12:00:14;78054.03;;;-145.99;35.50
2875;BME280;1445;52.600;13.328;2024-03-07T12:02:40;78093.94;;;-145.99;36.17
2875;BME280;1445;52.600;13.328;2024-03-07T12:05:06;78047.72;;;-145.99;35.55
2875;BME280;1445;52.600;13.328;2024-03-07T12:07:33;78041.41;;;-145.99;35.71
2875;BME280;1445;52.600;13.328;2024-03-07T12:10:03;78051.91;;;-145.99;36.42
2875;BME280;1445;52.600;13.328;2024-03-07T12:12:30;78123.34;;;-145.99;36.36
2875;BME280;1445;52.600;13.328;2024-03-07T12:14:56;78058.22;;;-145.99;36.35
2875;BME280;1445;52.600;13.328;2024-03-07T12:17:22;77988.91;;;-145.99;35.56
2875;BME280;1445;52.600;13.328;2024-03-07T12:19:48;77879.66;;;-145.99;34.14
2875;BME280;1445;52.600;13.328;2024-03-07T12:22:19;77810.34;;;-145.99;32.29
2875;BME280;1445;52.600;13.328;2024-03-07T12:24:52;77833.47;;;-145.99;30.64
2875;BME280;1445;52.600;13.328;2024-03-07T12:27:24;77827.16;;;-145.99;30.04
2875;BME280;1445;52.600;13.328;2024-03-07T12:29:50;77810.34;;;-145.99;29.28
2875;BME280;1445;52.600;13.328;2024-03-07T12:32:17;77839.75;;;-145.99;31.66
2875;BME280;1445;52.600;13.328;2024-03-07T12:34:43;77930.09;;;-145.99;31.09
2875;BME280;1445;52.600;13.328;2024-03-07T12:37:12;78081.31;;;-145.99;32.06
2875;BME280;1445;52.600;13.328;2024-03-07T12:39:42;78005.69;;;-145.99;31.54
2875;BME280;1445;52.600;13.328;2024-03-07T12:42:24;77925.88;;;-145.99;30.40
2875;BME280;1445;52.600;13.328;2024-03-07T12:44:50;77917.47;;;-145.99;31.56
2875;BME280;1445;52.600;13.328;2024-03-07T12:47:17;77967.88;;;-145.99;31.78